x

9442396 - La Push, Wa (lapw1) Weather Station

12:36 - Fri 19th Sep 2014 All times are PDT. -7 hours from GMT.

  • Wind
    3mph, 6mph gusts
  • Sea Temp 59°f
  • Air Temp 60°f
  • Sea Pressure 1014.7mb
  • 9442396 - La Push, Wa
  • 9442396 - La Push, Wa

More Historic Weather Station data

Upgrade to MSW Pro to gain access to the past 30 days of data for over 8000 Wavebouys and Weather Stations around the globe.

Join Pro

Comparision Forecast

View Surf forecast
   
ven. 09/19 12:36 3 6 mph 1014.7mb 59f 60f
12:30 3 6 mph 1014.7mb 59f 60f
12:24 3 6 mph 1014.7mb 59f 60f
12:18 2 5 mph 1014.6mb 59f 60f
12:12 2 5 mph 1014.6mb 59f 60f
12:06 3 6 mph 1014.4mb 59f 60f
12:00 2 5 mph 1014.3mb 59f 60f
jeu. 09/18 11:36 3 6 mph 1014.5mb 60f 60f
11:30 3 5 mph 1014.4mb 59f 60f
11:24 3 6 mph 1014.4mb 59f 60f
11:18 5 6 mph 1014.4mb 59f 60f
11:12 2 3 mph 1014.4mb 59f 60f
11:06 2 3 mph 1014.5mb 59f 60f
11:00 1 2 mph 1014.5mb 59f 60f
10:36 3 5 mph 1014.1mb 59f 60f
10:30 1 2 mph 1014mb 59f 60f
10:24 2
mph
1014mb 59f 60f
10:18 1 2 mph 1014.1mb 59f 60f
10:12 1 3 mph 1014.1mb 59f 60f
10:06 3 5 mph 1014mb 59f 60f
10:00 2 3 mph 1014mb 59f 60f
9:36  -  3 mph 1013.9mb 59f 60f
9:30 2
mph
1013.5mb 59f 60f
9:24 2 3 mph 1013.4mb 59f 60f
9:18 1 2 mph 1013.4mb 59f 60f
9:12 1 2 mph 1013.3mb 60f 60f
9:06 2 3 mph 1013.3mb 59f 60f
9:00 2
mph
1013.4mb 59f 60f
8:36 5 6 mph 1013.3mb 60f 60f
8:30 5 6 mph 1013.2mb 60f 60f
8:24 5 6 mph 1013.2mb 60f 60f
8:18 3 5 mph 1013mb 60f 60f
8:12 2 3 mph 1012.8mb 60f 60f
8:06 3 6 mph 1012.6mb 60f 60f
8:00 2 7 mph 1012.5mb 60f 60f
7:36 5 7 mph 1012.2mb 60f 60f
7:30 5 6 mph 1012.2mb 60f 60f
7:24 3 6 mph 1012.2mb 60f 60f
7:18 3 6 mph 1012.2mb 60f 60f
7:12 6 8 mph 1012.1mb 60f 60f
7:06 6 9 mph 1012.1mb 59f 60f
7:00 6 9 mph 1012.2mb 59f 60f
6:36 7 10 mph 1011.9mb 59f 60f
6:30 7 9 mph 1011.8mb 59f 60f
6:24 7 8 mph 1011.8mb 59f 60f
6:18 7 8 mph 1011.8mb 59f 60f
6:12 7 9 mph 1011.6mb 59f 60f
6:06 9 11 mph 1011.6mb 60f 60f
6:00 10 13 mph 1011.7mb 60f 60f
5:36 8 11 mph 1011.7mb 59f 60f
5:30 9 14 mph 1011.5mb 59f 60f
5:24 10 16 mph 1011.5mb 59f 60f
5:18 9 14 mph 1011.4mb 59f 60f
5:12 11 18 mph 1011.5mb 60f 60f
5:06 9 15 mph 1011.5mb 60f 60f
5:00 11 16 mph 1011.5mb 60f 60f
4:36 11 15 mph 1011.4mb 59f 60f
4:30 10 15 mph 1011.4mb 60f 60f
4:24 9 14 mph 1011.3mb 59f 60f
4:18 11 15 mph 1011.3mb 59f 60f
4:12 10 14 mph 1011.2mb 59f 60f
4:06 10 14 mph 1011.2mb 59f 60f
4:00 10 13 mph 1011.1mb 59f 60f
3:36 7 11 mph 1010.9mb 59f 60f
3:30 9 15 mph 1010.9mb 59f 60f
3:24 9 15 mph 1010.9mb 60f 60f
3:18 10 13 mph 1010.8mb 60f 61f
3:12 11 14 mph 1010.7mb 60f 61f
3:06 8 13 mph 1010.7mb 60f 61f
3:00 6 11 mph 1010.7mb 60f 61f
2:36 7 10 mph 1010.7mb 60f 61f
2:30 7 11 mph 1010.6mb 60f 61f
2:24 8 11 mph 1010.6mb 60f 61f
2:18 8 14 mph 1010.6mb 60f 61f
2:12 8 11 mph 1010.7mb 60f 61f
2:06 8 15 mph 1010.6mb 60f 61f
2:00 9 15 mph 1010.5mb 60f 61f
1:36 8 14 mph 1010.6mb 60f 61f
1:30 9 14 mph 1010.5mb 60f 61f
1:24 9 11 mph 1010.5mb 60f 61f
1:18 11 17 mph 1010.3mb 60f 61f
1:12 7 13 mph 1010.2mb 59f 61f
1:06 8 15 mph 1010mb 59f 60f
1:00 8 13 mph 1010.1mb 59f 60f
12:36 6 10 mph 1010.1mb 60f 61f
12:30 6 10 mph 1010.1mb 60f 60f
12:24 8 13 mph 1010.1mb 60f 60f
12:18 6 14 mph 1010.1mb 59f 60f
12:12 8 14 mph 1010mb 59f 60f
12:06 6 14 mph 1009.8mb 60f 60f
12:00 7 13 mph 1009.8mb 60f 60f
11:36 11 15 mph 1009.6mb 59f 60f
11:30 10 16 mph 1009.5mb 59f 60f
11:24 11 16 mph 1009.5mb 59f 60f
11:18 9 14 mph 1009.5mb 59f 60f
11:12 8 11 mph 1009.4mb 59f 60f
11:06 7 15 mph 1009.3mb 59f 60f
11:00 9 14 mph 1009.3mb 59f 60f
10:36 6 10 mph 1009.3mb 60f 59f
10:30 8 13 mph 1009.2mb 60f 59f
10:24 8 14 mph 1009.1mb 60f 59f
10:18 8 14 mph 1009.1mb 60f 59f
10:12 7 11 mph 1009.1mb 60f 59f
10:06 7 10 mph 1009.1mb 59f 59f
10:00 6 8 mph 1009mb 60f 59f
9:36 6 9 mph 1008.7mb 60f 59f
9:30 6 9 mph 1008.7mb 60f 59f
9:24 5 7 mph 1008.7mb 60f 59f
9:18 7 11 mph 1008.6mb 60f 59f
9:12 5 9 mph 1008.4mb 60f 59f
9:06 6 9 mph 1008.3mb 60f 59f
9:00 6 8 mph 1008.3mb 60f 59f
8:36 5 7 mph 1008.1mb 60f 59f
8:30 3 7 mph 1008mb 60f 59f
8:24 2 8 mph 1007.9mb 60f 59f
8:18 2 6 mph 1007.9mb 60f 59f
8:12 2 3 mph 1007.8mb 60f 59f
8:06 3 5 mph 1007.7mb 60f 59f
8:00 1 3 mph 1007.7mb 60f 59f
7:36 2 5 mph 1007.5mb 60f 58f
7:30 2 3 mph 1007.5mb 60f 58f
7:24 2 3 mph 1007.5mb 60f 58f
7:18 3 5 mph 1007.4mb 60f 58f
7:12 2 3 mph 1007.4mb 60f 58f
7:06 3
mph
1007.3mb 60f 58f
7:00 2 3 mph 1007.3mb 60f 58f
6:36 2 3 mph 1007.1mb 60f 58f
6:30 3
mph
1007mb 60f 58f
6:24 3 6 mph 1007mb 60f 58f
6:18 2 5 mph 1007mb 60f 58f
6:12 3 5 mph 1007mb 60f 58f
6:06 3 5 mph 1007.1mb 60f 59f
6:00 3 6 mph 1007.1mb 60f 58f
5:36 2
mph
1007mb 60f 58f
5:30 2
mph
1007mb 60f 58f
5:24 1 2 mph 1007mb 60f 58f
5:18 1 2 mph 1007mb 60f 58f
5:12  -  1 mph 1007.1mb 60f 58f
5:06  -  mph 1007.1mb 60f 58f
5:00  -  1 mph 1007mb 60f 58f
4:36  -  1 mph 1006.9mb 60f 58f
4:30  -  1 mph 1006.8mb 60f 58f
4:24  -  1 mph 1006.7mb 60f 58f
4:18 1 2 mph 1006.7mb 60f 58f
4:12 1 2 mph 1006.7mb 60f 58f
4:06 2
mph
1006.6mb 60f 58f
4:00 2 3 mph 1006.6mb 60f 58f
3:36  -  2 mph 1006.7mb 60f 58f
3:30 2
mph
1006.7mb 60f 58f
3:24  -  2 mph 1006.7mb 60f 58f
3:18 1 2 mph 1006.7mb 60f 58f
3:12 1 2 mph 1006.7mb 60f 58f
3:06 2
mph
1006.7mb 60f 58f
3:00 1 2 mph 1006.8mb 60f 58f
2:36 2 5 mph 1006.9mb 60f 58f
2:30 3 5 mph 1006.8mb 60f 58f
2:24 5
mph
1006.9mb 60f 58f
2:18 3 5 mph 1006.8mb 60f 59f
2:12 2
mph
1006.8mb 60f 58f
2:06  -  1 mph 1006.8mb 60f 58f
2:00  -  1 mph 1006.8mb 60f 58f
1:36  -  1 mph 1006.9mb 60f 58f
1:30  -  1 mph 1006.9mb 60f 58f
1:24 2 3 mph 1007mb 60f 58f
1:18 2 3 mph 1007mb 60f 58f
1:12 3 5 mph 1007mb 60f 59f
1:06 3 6 mph 1007mb 60f 59f
1:00 3 5 mph 1007mb 60f 58f
12:36 2 3 mph 1006.9mb 60f 58f
12:30 1 2 mph 1006.8mb 60f 58f
12:24  -  1 mph 1006.8mb 60f 58f
12:18  -  1 mph 1006.7mb 60f 58f
12:12  -  2 mph 1006.7mb 60f 58f
12:06 1 2 mph 1006.7mb 60f 58f
12:00 2
mph
1006.7mb 60f 58f
mer. 09/17 11:54 2
mph
1006.7mb 60f 58f
11:48  -  1 mph 1006.6mb 60f 58f
11:36  -  1 mph 1006.6mb 60f 58f
11:30 2
mph
1006.5mb 60f 58f
11:24 2 3 mph 1006.5mb 60f 58f
11:18 2
mph
1006.4mb 60f 58f
11:12  -  2 mph 1006.5mb 60f 58f
11:06 2 3 mph 1006.4mb 60f 58f
11:00 1 3 mph 1006.5mb 60f 58f
10:54 1 3 mph 1006.6mb 60f 58f
10:48 2 3 mph 1006.6mb 60f 58f
10:36 1 2 mph 1006.7mb 60f 58f
10:30 1 2 mph 1006.8mb 60f 58f
10:24 2
mph
1006.9mb 60f 58f
10:18 2
mph
1006.8mb 60f 58f
10:12 1 2 mph 1006.9mb 60f 59f
10:06  -  1 mph 1007mb 60f 59f
10:00  -  2 mph 1007mb 60f 59f
9:54 2
mph
1007.1mb 60f 59f
9:48 2
mph
1007.2mb 60f 59f
9:36 2 3 mph 1007.3mb 60f 59f
9:30 3
mph
1007.3mb 60f 59f
9:24 3
mph
1007.3mb 60f 59f
9:18 3 5 mph 1007.3mb 60f 59f
9:12 3 5 mph 1007.4mb 60f 59f
9:06 3
mph
1007.4mb 60f 59f
9:00 2
mph
1007.4mb 60f 59f
8:54 1 2 mph 1007.1mb 60f 59f
8:48 1 2 mph 1007mb 60f 59f
8:36 2 3 mph 1007.1mb 60f 59f
8:30 2 3 mph 1007.1mb 60f 59f
8:24 3 6 mph 1007.1mb 60f 59f
8:18 5
mph
1007.2mb 60f 59f
8:12 5
mph
1007.2mb 60f 59f
8:06 3 5 mph 1007.4mb 60f 59f
8:00 3
mph
1007.3mb 60f 60f
7:54 1 2 mph 1007.2mb 60f 60f
7:48  -  1 mph 1007mb 60f 60f
7:36 5 6 mph 1006.9mb 60f 60f
7:30 5 6 mph 1006.9mb 60f 60f
7:24 3 5 mph 1006.9mb 60f 60f
7:18 5
mph
1006.8mb 60f 60f
7:12 5 6 mph 1006.8mb 60f 60f
7:06 5 6 mph 1006.8mb 60f 60f
7:00 5 6 mph 1006.7mb 60f 59f
6:54 6 8 mph 1006.7mb 60f 59f
6:48 6 8 mph 1006.7mb 60f 59f
6:36 7 10 mph 1006.8mb 60f 59f
6:30 9 11 mph 1006.8mb 60f 59f
6:24 10 11 mph 1006.7mb 60f 59f
6:18 10 13 mph 1006.7mb 60f 59f
6:12 10 13 mph 1006.6mb 60f 59f
6:06 11 14 mph 1006.5mb 60f 59f
6:00 11 14 mph 1006.4mb 60f 59f
5:54 13 14 mph 1006.5mb 60f 60f
5:48 11 14 mph 1006.6mb 60f 60f
5:36 11 14 mph 1006.6mb 60f 60f
5:30 10 13 mph 1006.4mb 60f 60f
5:24 10 14 mph 1006.4mb 60f 60f
5:18 13 14 mph 1006.4mb 60f 60f
5:12 14 15 mph 1006.5mb 60f 60f
5:06 13 14 mph 1006.6mb 60f 60f
5:00 11 14 mph 1006.7mb 60f 60f
4:54 10 13 mph 1006.7mb 60f 60f
4:48 9 11 mph 1006.7mb 60f 60f
4:36 7 10 mph 1006.8mb 60f 60f
4:30 8 10 mph 1006.8mb 60f 60f
4:24 8 13 mph 1006.7mb 60f 60f
4:18 11 14 mph 1006.8mb 60f 60f
4:12 11 14 mph 1006.7mb 60f 60f
4:06 11 14 mph 1006.7mb 60f 60f
4:00 13 14 mph 1006.8mb 60f 60f
3:54 11 13 mph 1006.8mb 60f 60f
3:48 9 11 mph 1006.8mb 60f 60f
3:36 10 13 mph 1006.6mb 60f 60f
3:30 8 11 mph 1006.7mb 60f 60f
3:24 9 11 mph 1006.8mb 60f 60f
3:18 10 14 mph 1006.6mb 60f 60f
3:12 11 14 mph 1006.5mb 60f 60f
3:06 13 14 mph 1006.5mb 60f 61f
3:00 9 11 mph 1006.6mb 60f 61f
2:54 9 10 mph 1006.4mb 60f 61f
2:48 9 10 mph 1006.2mb 60f 61f
2:36 10 11 mph 1006.5mb 60f 60f
2:30 10 13 mph 1006.6mb 60f 60f
2:24 9 11 mph 1006.8mb 60f 60f
2:18 7 9 mph 1007mb 60f 60f
2:12 8 9 mph 1007mb 60f 60f
2:06 8 9 mph 1006.9mb 60f 60f
2:00 7 8 mph 1007mb 60f 60f
1:54 8 9 mph 1007.1mb 60f 60f
1:48 7 9 mph 1007.3mb 60f 60f
1:36 8 9 mph 1007.3mb 60f 60f
1:30 8 9 mph 1007.2mb 60f 60f
1:24 8 9 mph 1007.1mb 60f 60f
1:18 9
mph
1006.9mb 60f 61f
1:12 6 7 mph 1007mb 60f 61f
1:06 6 7 mph 1006.9mb 60f 61f
1:00 6 7 mph 1006.7mb 59f 61f
12:54 6 8 mph 1006.8mb 59f 61f
12:48 6 8 mph 1006.9mb 59f 60f
12:36 7 8 mph 1007.1mb 59f 60f
12:30 6 7 mph 1007.5mb 60f 60f
12:24 6
mph
1007.7mb 60f 60f
12:18 5 6 mph 1007.9mb 60f 60f
12:12 5
mph
1008mb 60f 60f
12:06 5
mph
1008mb 60f 60f
12:00 5
mph
1008.1mb 60f 60f
11:54 3 5 mph 1008.2mb 60f 60f
11:48 3
mph
1008.2mb 60f 60f
11:36 3
mph
1008.2mb 60f 60f
11:30 3 5 mph 1008.2mb 60f 61f
11:24 1 2 mph 1008.2mb 60f 61f
11:18 1 2 mph 1008.3mb 60f 60f
11:12 1 3 mph 1008.3mb 60f 60f
11:06 1 2 mph 1008.3mb 60f 60f
11:00  -  3 mph 1008.3mb 60f 60f
10:54 2 6 mph 1008.2mb 60f 60f
10:48 5 7 mph 1008.1mb 60f 60f
10:36 3 6 mph 1008.2mb 60f 59f
10:30 5 6 mph 1008.2mb 60f 59f
10:24 3 6 mph 1008.2mb 60f 59f
10:18 6 7 mph 1008.1mb 59f 58f
10:12 6 7 mph 1008.1mb 59f 58f
10:06 5 6 mph 1008.2mb 59f 58f
10:00 5 6 mph 1008.1mb 59f 58f
9:54 6 7 mph 1008.1mb 59f 58f
9:48 6 8 mph 1008mb 59f 58f
9:36 6 8 mph 1008.2mb 59f 57f
9:30 6 7 mph 1008.2mb 59f 57f
9:24 6 8 mph 1008.1mb 59f 57f
9:18 6 8 mph 1008.1mb 59f 57f
9:12 7 8 mph 1008.1mb 59f 57f
9:06 7 8 mph 1008.1mb 59f 56f
9:00 6 8 mph 1008.1mb 59f 56f
8:36 6 7 mph 1008.1mb 59f 56f
8:30 6 7 mph 1008.1mb 59f 56f
8:24 6 7 mph 1008.2mb 59f 56f
8:18 5 6 mph 1008.2mb 59f 56f
8:12 5 6 mph 1008.2mb 59f 56f
8:06 3 6 mph 1008.2mb 59f 56f
8:00 3 6 mph 1008.3mb 59f 56f
7:54 5 7 mph 1008.2mb 59f 56f
7:48 5 7 mph 1008.2mb 59f 56f
7:36 6 7 mph 1008.2mb 59f 55f
7:30 5 7 mph 1008.3mb 59f 55f
7:24 6 7 mph 1008.2mb 60f 55f
7:18 6 8 mph 1008mb 60f 55f
7:12 6 8 mph 1008mb 60f 55f
7:06 7 8 mph 1007.9mb 60f 55f
7:00 6 7 mph 1007.9mb 60f 55f
6:54 7 8 mph 1007.9mb 60f 56f
6:48 5 6 mph 1007.9mb 60f 56f
6:36 7 8 mph 1007.9mb 60f 56f
6:30 6 8 mph 1008.1mb 59f 56f
6:24 5 7 mph 1008mb 60f 56f
6:18 6 8 mph 1008mb 60f 56f
6:12 6 7 mph 1008mb 59f 56f
6:06 6
mph
1008mb 60f 56f
6:00 5 6 mph 1008mb 60f 56f
5:54 3 7 mph 1008.1mb 59f 56f
5:48 5 6 mph 1008.1mb 60f 56f
5:36 3 5 mph 1008.2mb 60f 56f
5:30 3 5 mph 1008.3mb 60f 56f
5:24 1 6 mph 1008.2mb 60f 56f
5:18 5 6 mph 1008.3mb 60f 56f
5:12 5 6 mph 1008.2mb 60f 56f
5:06 5 6 mph 1008mb 60f 56f
5:00 5 6 mph 1008mb 60f 56f
4:54 6 7 mph 1008mb 60f 56f
4:48 6 7 mph 1008.1mb 60f 56f
4:36 6
mph
1008.3mb 60f 57f
4:30 5 7 mph 1008.4mb 60f 57f
4:24 5 7 mph 1008.4mb 60f 57f
4:18 6 7 mph 1008.4mb 60f 57f
4:12 6
mph
1008.5mb 60f 57f
4:06 5 6 mph 1008.7mb 60f 57f
4:00 5 6 mph 1008.9mb 60f 57f
3:54 5 6 mph 1009mb 60f 57f
3:48 3 5 mph 1009.2mb 60f 57f
3:36 5
mph
1009.3mb 60f 57f
3:30 5 6 mph 1009.2mb 60f 57f
3:24 5
mph
1009.3mb 60f 57f
3:18 5
mph
1009.3mb 60f 58f
3:12 3 5 mph 1009.4mb 60f 58f
3:06 3 5 mph 1009.4mb 60f 58f
3:00 2 3 mph 1009.4mb 60f 57f
2:54 1 2 mph 1009.5mb 60f 57f
2:48 1 2 mph 1009.5mb 60f 58f
2:36 2
mph
1009.6mb 60f 58f
2:30  -  3 mph 1009.7mb 60f 58f
2:24 1 3 mph 1009.6mb 60f 58f
2:18 2 5 mph 1009.5mb 60f 58f
2:12 3 5 mph 1009.6mb 60f 58f
2:06 3 5 mph 1009.7mb 60f 58f
2:00 2 5 mph 1009.7mb 60f 58f
1:54 3 6 mph 1009.6mb 60f 58f
1:48 5 6 mph 1009.6mb 60f 58f
1:36 5 7 mph 1009.6mb 60f 58f
1:30 5 6 mph 1009.7mb 60f 58f
1:24 3 6 mph 1009.7mb 60f 58f
1:18 3 6 mph 1009.8mb 60f 58f
1:12 5 6 mph 1009.9mb 60f 58f
1:06 3 5 mph 1010.1mb 60f 58f
1:00 3 5 mph 1010.2mb 60f 58f
12:54 3 5 mph 1010.2mb 60f 58f
12:48 3 5 mph 1010.3mb 60f 58f
12:36 5 6 mph 1010.4mb 60f 58f
12:30 5 7 mph 1010.5mb 60f 58f
12:24 6
mph
1010.6mb 60f 58f
12:18 5 6 mph 1010.7mb 60f 58f
12:12 5 6 mph 1010.7mb 60f 58f
12:06 5 7 mph 1010.8mb 60f 58f
12:00 5 6 mph 1010.8mb 60f 58f
mar. 09/16 11:54 5 6 mph 1010.7mb 60f 58f
11:48 5 6 mph 1010.8mb 60f 58f
11:36 5 6 mph 1010.8mb 60f 58f
11:30 5 6 mph 1010.8mb 60f 58f
11:24 5 6 mph 1010.9mb 60f 58f
11:18 5 6 mph 1010.9mb 60f 58f
11:12 5
mph
1010.9mb 60f 59f
11:06 3 5 mph 1010.9mb 60f 59f
11:00 5 6 mph 1011mb 60f 59f
10:54 5 6 mph 1011mb 60f 59f
10:48 5 6 mph 1011.1mb 60f 59f
10:36 2 3 mph 1011.1mb 60f 59f
10:30 2 3 mph 1011.2mb 60f 60f
10:24 2 3 mph 1011.3mb 60f 60f
10:18 2 3 mph 1011.3mb 60f 60f
10:12 2 3 mph 1011.3mb 60f 60f
10:06 3
mph
1011.3mb 60f 60f
10:00 2 3 mph 1011.2mb 60f 60f
9:54 2 3 mph 1011.2mb 60f 60f
9:48 2
mph
1011.2mb 60f 60f
9:36  -  2 mph 1011.4mb 60f 60f
9:30  -  2 mph 1011.4mb 59f 60f
9:24 2 6 mph 1011.4mb 60f 60f
9:18 1 2 mph 1011.4mb 60f 60f
9:12 2 6 mph 1011.4mb 60f 60f
9:06 1 3 mph 1011.4mb 59f 60f
9:00 3
mph
1011.3mb 59f 60f
8:54 1 3 mph 1011.3mb 59f 60f
8:48 3 6 mph 1011.4mb 59f 60f
8:36 2 5 mph 1011.4mb 59f 60f
8:30 2 5 mph 1011.5mb 59f 60f
8:24 2 5 mph 1011.4mb 59f 60f
8:18 2 5 mph 1011.4mb 59f 60f
8:12 3 5 mph 1011.4mb 59f 60f
8:06 5 6 mph 1011.4mb 59f 60f
8:00 2 7 mph 1011.5mb 60f 60f
7:54 3 6 mph 1011.5mb 60f 60f
7:48 3 5 mph 1011.4mb 60f 60f
7:36 1 3 mph 1011.4mb 60f 60f
7:30 2 5 mph 1011.4mb 60f 60f
7:24 2 5 mph 1011.4mb 60f 60f
7:18 1 3 mph 1011.5mb 60f 60f
7:12 2 5 mph 1011.6mb 60f 60f
7:06 3 5 mph 1011.6mb 59f 60f
7:00 5 6 mph 1011.7mb 59f 60f
6:54 3 7 mph 1011.7mb 59f 60f
6:48 6 10 mph 1011.8mb 59f 60f
6:36 6 9 mph 1011.8mb 59f 60f
6:30 6 9 mph 1011.8mb 59f 60f
6:24 5 9 mph 1011.8mb 59f 60f
6:18 6 9 mph 1011.8mb 59f 61f
6:12 6 9 mph 1011.8mb 59f 61f
6:06 6 8 mph 1011.8mb 59f 61f
6:00 5 8 mph 1011.7mb 59f 61f
5:54 6 8 mph 1011.7mb 59f 61f
5:48 2 6 mph 1011.8mb 59f 61f
5:36 5 7 mph 1011.9mb 59f 61f
5:30 5 9 mph 1012mb 59f 61f
5:24 5 9 mph 1012mb 59f 61f
5:18 6 11 mph 1012mb 59f 61f
5:12 5 8 mph 1012.1mb 59f 61f
5:06 6 10 mph 1012mb 59f 61f
5:00 5 10 mph 1012.1mb 59f 61f
4:54 6 9 mph 1012.2mb 59f 61f
4:48 8 11 mph 1012.2mb 59f 61f
4:36 9 13 mph 1012.2mb 59f 62f
4:30 7 9 mph 1012.3mb 59f 62f
4:24 5 8 mph 1012.3mb 59f 62f
4:18 6 9 mph 1012.3mb 59f 61f
4:12 8 11 mph 1012.4mb 59f 61f
4:06 9 15 mph 1012.4mb 59f 61f
4:00 9 13 mph 1012.4mb 59f 61f
3:54 10 13 mph 1012.4mb 59f 61f
3:48 9 14 mph 1012.5mb 59f 61f
3:36 9 15 mph 1012.5mb 59f 61f
3:30 9 14 mph 1012.5mb 59f 61f
3:24 10 15 mph 1012.5mb 59f 61f
3:18 10 16 mph 1012.4mb 59f 61f
3:12 7 10 mph 1012.5mb 59f 61f
3:06 9 14 mph 1012.5mb 59f 61f
3:00 9 13 mph 1012.5mb 59f 61f
2:54 11 16 mph 1012.6mb 59f 61f
2:48 8 11 mph 1012.7mb 59f 61f
2:36 10 15 mph 1012.7mb 59f 61f
2:30 10 15 mph 1012.7mb 59f 61f
2:24 10 15 mph 1012.7mb 59f 61f
2:18 10 14 mph 1012.7mb 59f 61f
2:12 10 15 mph 1012.7mb 59f 61f
2:06 10 15 mph 1012.8mb 59f 61f
2:00 10 14 mph 1012.8mb 59f 62f
1:54 9 11 mph 1012.8mb 59f 62f
1:48 9 13 mph 1012.7mb 59f 62f
1:36 8 11 mph 1012.7mb 59f 61f
1:30 8 13 mph 1012.7mb 59f 61f
1:24 9 11 mph 1012.7mb 59f 61f
1:18 9 14 mph 1012.7mb 59f 61f
1:12 8 13 mph 1012.7mb 59f 61f
1:06 10 15 mph 1012.7mb 59f 61f
1:00 9 16 mph 1012.7mb 59f 61f
12:54 11 15 mph 1012.6mb 59f 61f
12:48 11 16 mph 1012.6mb 59f 61f
12:36 11 16 mph 1012.7mb 59f 61f
12:30 14 18 mph 1012.7mb 60f 62f
12:24 10 16 mph 1012.6mb 60f 62f
12:18 13 16 mph 1012.6mb 59f 62f
12:12 10 16 mph 1012.5mb 59f 62f
12:06 10 14 mph 1012.5mb 59f 62f
12:00 10 14 mph 1012.5mb 59f 62f
11:54 8 14 mph 1012.5mb 59f 62f
11:48 6 15 mph 1012.5mb 59f 62f
11:36 8 13 mph 1012.5mb 59f 62f
11:30 8 14 mph 1012.5mb 59f 62f
11:24 8 15 mph 1012.5mb 59f 61f
11:18 9 14 mph 1012.5mb 59f 61f
11:12 10 15 mph 1012.5mb 59f 62f
11:06 8 13 mph 1012.5mb 59f 61f
11:00 9 16 mph 1012.5mb 59f 61f
10:54 11 17 mph 1012.4mb 59f 61f
10:48 9 16 mph 1012.3mb 59f 61f
10:36 11 17 mph 1012.3mb 59f 61f
10:30 10 18 mph 1012.3mb 59f 61f
10:24 9 16 mph 1012.2mb 59f 61f
10:18 10 15 mph 1012.2mb 59f 61f
10:12 8 15 mph 1012.3mb 59f 61f
10:06 9 16 mph 1012.3mb 59f 60f
10:00 9 16 mph 1012.3mb 59f 60f
8:36 7 10 mph 1011.7mb 59f 59f
8:30 3 9 mph 1011.7mb 59f 59f
8:24 6 11 mph 1011.7mb 59f 59f
8:18 7 14 mph 1011.7mb 59f 59f
8:12 8 13 mph 1011.7mb 59f 59f
8:06 8 14 mph 1011.7mb 59f 60f
8:00 7 11 mph 1011.6mb 59f 60f
7:54 6 11 mph 1011.6mb 59f 60f
7:48 7 13 mph 1011.6mb 59f 60f
5:36 5 7 mph - - -
5:30 5 8 mph - - -
5:24 5 9 mph - - -
5:18 5 8 mph - - -
5:12 7 10 mph - - -
5:06 6 9 mph - - -
5:00 7 10 mph - - -
4:54 3 8 mph - - -
4:48 5 8 mph - - -
4:36 3 6 mph 1011.4mb 59f 60f
4:30 6 11 mph 1011.4mb 59f 60f
4:24 7 11 mph 1011.5mb 59f 60f
4:18 6 8 mph 1011.5mb 59f 60f
4:12 6 11 mph 1011.4mb 59f 60f
4:06 6 13 mph 1011.5mb 59f 60f
4:00 6 14 mph 1011.6mb 59f 60f
3:54 6 11 mph 1011.6mb 59f 60f
3:48 8 13 mph 1011.5mb 59f 60f
3:36 7 13 mph 1011.6mb 59f 59f
3:30 7 13 mph 1011.5mb 59f 60f
3:24 6 13 mph 1011.6mb 59f 59f
3:18 10 14 mph 1011.5mb 59f 59f
3:12 9 11 mph 1011.5mb 59f 59f
3:06 7 11 mph 1011.6mb 59f 59f
3:00 7 14 mph 1011.5mb 59f 59f
2:54 6 15 mph 1011.5mb 59f 59f
2:48 8 15 mph 1011.5mb 59f 59f
2:36 9 13 mph 1011.7mb 59f 59f
2:30 11 15 mph 1011.7mb 59f 59f
2:24 10 20 mph 1011.6mb 59f 59f
2:18 14 20 mph 1011.6mb 59f 59f
2:12 10 20 mph 1011.5mb 59f 59f
2:06 10 18 mph 1011.5mb 59f 59f
2:00 13 21 mph 1011.5mb 59f 59f
1:54 13 22 mph 1011.5mb 59f 59f
1:48 13 23 mph 1011.4mb 59f 59f
1:36 11 23 mph 1011.4mb 59f 59f
1:30 14 21 mph 1011.3mb 59f 59f
1:24 11 20 mph 1011.3mb 59f 59f
1:18 10 16 mph 1011.2mb 59f 59f
1:12 11 14 mph 1011.2mb 59f 59f
1:06 11 18 mph 1011.1mb 59f 59f
1:00 13 22 mph 1011mb 59f 59f
12:54 10 15 mph 1011mb 59f 59f
12:48 8 15 mph 1011mb 59f 59f
12:36 9 13 mph 1010.7mb 60f 58f
12:30 7 9 mph 1010.7mb 60f 58f
12:24 2 7 mph 1010.7mb 60f 58f
12:18 3 8 mph 1010.6mb 60f 58f
12:12 5 8 mph 1010.5mb 59f 58f
12:06 5 9 mph 1010.5mb 59f 58f
12:00 7 11 mph 1010.4mb 59f 59f
lun. 09/15 11:54 5 10 mph 1010.4mb 59f 59f
11:48 6 9 mph 1010.4mb 59f 59f
9:36  -  mph 1010mb 58f 61f
9:30  -  mph 1009.9mb 58f 61f
9:24  -  mph 1009.9mb 58f 61f
9:18  -  mph 1010mb 58f 61f
9:12  -  mph 1009.9mb 58f 61f
9:06  -  mph 1009.9mb 58f 61f
9:00  -  mph 1009.9mb 58f 62f
8:54  -  mph 1009.8mb 58f 62f
8:48  -  mph 1009.8mb 58f 62f
8:36  -  mph 1009.7mb - 62f
8:30  -  mph 1009.6mb - 60f
8:24  -  mph 1009.5mb - 61f
8:18  -  mph 1009.3mb - 62f
8:12  -  mph 1009.2mb - 62f
8:06  -  mph 1009.1mb - 62f
8:00  -  mph 1009.1mb - 62f
7:54  -  mph 1009mb - 62f
7:48  -  mph 1008.9mb - 63f
7:36 3
mph
1008.7mb - -
7:30 2
mph
1008.6mb - -
7:24 2
mph
1008.6mb - -
7:18 2
mph
1008.6mb - -
7:12 1 2 mph 1008.5mb - -
7:06 2 3 mph 1008.5mb - -
7:00 3
mph
1008.6mb - -
6:54 2 3 mph 1008.6mb - -
6:48 2 3 mph 1008.6mb - -
6:36 3 5 mph 1008.7mb 58f 65f
6:30 5 6 mph 1008.7mb 58f 65f
6:24 5
mph
1008.7mb 58f 65f
6:18 2 6 mph 1008.7mb 58f 65f
6:12 5 7 mph 1008.7mb 58f 66f
6:06 6 8 mph 1008.7mb 58f 66f
6:00 7 9 mph 1008.7mb 58f 66f
5:54 8 9 mph 1008.7mb 58f 66f
5:48 7 9 mph 1008.7mb 58f 66f
5:36 8 9 mph 1008.8mb 58f 66f
5:30 6 8 mph 1008.8mb 58f 66f
5:24 6 9 mph 1008.7mb 58f 66f
5:18 6 8 mph 1008.7mb 58f 66f
5:12 6 9 mph 1008.6mb 58f 66f
5:06 6 8 mph 1008.6mb 58f 66f
5:00 6 8 mph 1008.7mb 58f 66f
4:54 3 7 mph 1008.7mb 58f 66f
4:48 3 8 mph 1008.8mb 58f 66f
4:36 7 8 mph 1008.8mb 58f 65f
4:30 7 9 mph 1008.8mb 58f 65f
4:24 6 7 mph 1008.9mb 58f 64f
4:18 5 7 mph 1008.9mb 58f 64f
4:12 5 7 mph 1008.9mb 58f 64f
4:06 6 7 mph 1009mb 58f 64f
4:00 6 7 mph 1009mb 58f 64f
3:54 5
mph
1009.1mb 58f 64f
3:48 3 5 mph 1009.1mb 58f 64f
3:36 3 5 mph 1009.2mb 58f 63f
3:30 1 3 mph 1009.2mb 58f 63f
3:24 3 5 mph 1009.2mb 58f 63f
3:18 3 6 mph 1009.3mb 58f 64f
3:12 5 6 mph 1009.3mb 58f 64f
3:06 5 6 mph 1009.4mb 58f 64f
3:00 5 6 mph 1009.4mb 58f 64f
2:54 3 6 mph 1009.4mb 58f 64f
2:48 6 7 mph 1009.4mb 58f 64f
2:36 5 7 mph 1009.5mb 58f 64f
2:30 6 7 mph 1009.5mb 58f 64f
2:24 3 8 mph 1009.5mb 58f 64f
2:18 5 7 mph 1009.6mb 58f 63f
2:12 6
mph
1009.6mb 58f 63f
2:06 3 5 mph 1009.6mb 58f 62f
2:00 3 5 mph 1009.6mb 58f 62f
1:54 5 6 mph 1009.5mb 58f 62f
1:48 6
mph
1009.6mb 58f 62f
1:36 5 6 mph 1009.7mb 58f 62f
1:30 6 7 mph 1009.8mb 58f 62f
1:24 3 6 mph 1009.8mb 58f 62f
1:18 5 6 mph 1009.8mb 58f 62f
1:12 3 6 mph 1009.8mb 58f 62f
1:06 3 5 mph 1009.8mb 58f 62f
1:00 3 6 mph 1009.7mb 58f 61f
12:54 6 7 mph 1009.7mb 58f 61f
12:48 6 7 mph 1009.7mb 58f 61f
12:36 6 7 mph 1009.6mb 58f 61f
12:30 6 7 mph 1009.6mb 58f 61f
12:24 6 7 mph 1009.6mb 58f 61f
12:18 6 7 mph 1009.6mb 58f 61f
12:12 6 7 mph 1009.7mb 58f 61f
12:06 6 7 mph 1009.7mb 58f 61f
12:00 6 7 mph 1009.7mb 58f 61f
11:54 6 7 mph 1009.7mb 58f 61f
11:48 5 6 mph 1009.8mb 58f 61f
11:36 7 8 mph 1009.8mb 58f 61f
11:30 7 9 mph 1009.8mb 58f 61f
11:24 7 8 mph 1009.8mb 58f 62f
11:18 6 9 mph 1009.8mb 58f 63f
11:12 8
mph
1009.8mb 58f 62f
11:06 7 9 mph 1009.8mb 58f 63f
11:00 8 9 mph 1009.8mb 58f 63f
10:54 8
mph
1009.8mb 58f 62f
10:48 7 8 mph 1009.9mb 58f 62f
10:36 6 7 mph 1009.8mb 58f 69f
10:30 5 7 mph 1009.7mb 58f 68f
10:24 6 9 mph 1009.7mb 58f 67f
10:18 7 9 mph 1009.8mb 58f 67f
10:12 7 10 mph 1009.8mb 58f 66f
10:06 9 11 mph 1009.9mb 58f 65f
10:00 9 13 mph 1009.9mb 58f 64f
9:54 9 11 mph 1009.9mb 58f 63f
9:48 9 13 mph 1010mb 58f 62f
9:36 8 13 mph 1010mb 58f 60f
9:30 10 14 mph 1009.9mb 58f 60f
9:24 10 14 mph 1010mb 58f 59f
9:18 10 13 mph 1010mb 58f 58f
9:12 11 14 mph 1010mb 58f 58f
9:06 10 14 mph 1010mb 58f 57f
9:00 10 14 mph 1010mb 58f 56f
8:54 11 14 mph 1010mb 58f 55f
8:48 11 14 mph 1010mb 58f 55f
8:36 11 14 mph 1010.1mb 58f 54f